createdAt,value
2022-11-01T00:10:28.812Z,13.64
2022-11-01T00:25:31.055Z,13.56
2022-11-01T00:40:33.370Z,13.56
2022-11-01T00:55:35.766Z,13.32
2022-11-01T01:10:38.112Z,13.07
2022-11-01T01:25:40.348Z,12.65
2022-11-01T01:40:42.547Z,12.83
2022-11-01T01:55:44.810Z,12.71
2022-11-01T02:10:47.087Z,12.87
2022-11-01T02:25:49.357Z,12.55
2022-11-01T02:40:51.611Z,12.71
2022-11-01T02:55:54.041Z,13.02
2022-11-01T03:10:56.261Z,12.67
2022-11-01T03:25:58.561Z,12.58
2022-11-01T03:41:00.778Z,12.83
2022-11-01T03:56:03.098Z,12.06
2022-11-01T04:11:05.384Z,11.75
2022-11-01T04:26:07.789Z,12.01
2022-11-01T04:41:10.043Z,12.08
2022-11-01T04:56:12.271Z,12.05
2022-11-01T05:11:14.655Z,12.29
2022-11-01T05:26:16.930Z,12.08
2022-11-01T05:41:19.299Z,11.98
2022-11-01T05:56:21.541Z,11.63
2022-11-01T06:11:23.806Z,11.87
2022-11-01T06:26:26.111Z,11.97
2022-11-01T06:41:28.392Z,11.89
2022-11-01T06:56:30.626Z,11.53
2022-11-01T07:11:32.847Z,11.59
2022-11-01T07:26:35.022Z,11.76
2022-11-01T07:41:37.285Z,11.59
2022-11-01T07:56:39.492Z,11.44
2022-11-01T08:11:41.830Z,11.5
2022-11-01T08:26:44.089Z,11.89
2022-11-01T08:41:46.279Z,11.5
2022-11-01T08:56:48.546Z,11.41
2022-11-01T09:11:50.998Z,11.34
2022-11-01T09:26:53.288Z,11.56
2022-11-01T09:41:55.513Z,11.39
2022-11-01T09:56:57.758Z,11.75
2022-11-01T10:11:59.979Z,11.66
2022-11-01T10:27:02.519Z,11.21
2022-11-01T10:42:04.833Z,11.22
2022-11-01T10:57:07.213Z,11.33
2022-11-01T11:12:09.477Z,11.13
2022-11-01T11:27:11.792Z,10.85
2022-11-01T11:42:14.145Z,10.31
2022-11-01T11:57:16.468Z,10.03
2022-11-01T12:12:18.708Z,10.31
2022-11-01T12:27:21.112Z,10.1
2022-11-01T12:42:23.545Z,10.49
2022-11-01T12:57:25.836Z,10.5
2022-11-01T13:12:28.223Z,9.84
2022-11-01T13:27:30.668Z,9.95
2022-11-01T13:42:32.969Z,9.85
2022-11-01T13:57:35.274Z,10.17
2022-11-01T14:12:37.545Z,10.08
2022-11-01T14:27:39.845Z,9.92
2022-11-01T14:42:42.191Z,9.51
2022-11-01T14:57:44.515Z,9.66
2022-11-01T15:12:47.953Z,9.52
2022-11-01T15:27:50.469Z,9.04
2022-11-01T15:42:52.820Z,9.45
2022-11-01T15:57:55.109Z,9.87
2022-11-01T16:12:57.380Z,9.68
2022-11-01T16:27:59.654Z,9.65
2022-11-01T16:43:02.024Z,9.85
2022-11-01T16:58:04.598Z,9.86
2022-11-01T17:13:07.191Z,9.72
2022-11-01T17:28:09.614Z,10.02
2022-11-01T17:43:11.907Z,9.83
2022-11-01T17:58:14.311Z,9.58
2022-11-01T18:13:16.744Z,9.85
2022-11-01T18:28:19.043Z,10.15
2022-11-01T18:43:21.392Z,10.22
2022-11-01T18:58:23.658Z,10.25
2022-11-01T19:13:25.984Z,10.01
2022-11-01T19:28:28.377Z,9.79
2022-11-01T19:43:30.696Z,9.82
2022-11-01T19:58:37.159Z,10.03
2022-11-01T20:13:41.285Z,10.57
2022-11-01T20:28:43.603Z,10.73
2022-11-01T20:43:45.990Z,10.63
2022-11-01T20:58:48.388Z,10.62
2022-11-01T21:13:50.712Z,10.62
2022-11-01T21:28:53.057Z,10.69
2022-11-01T21:43:55.380Z,10.65
2022-11-01T21:58:57.623Z,10.94
2022-11-01T22:14:00.096Z,11
2022-11-01T22:29:02.394Z,10.41
2022-11-01T22:44:04.696Z,10.43
2022-11-01T22:59:07.043Z,10.93
2022-11-01T23:14:09.573Z,10.7
2022-11-01T23:29:11.978Z,10.82
2022-11-01T23:44:14.333Z,10.61
2022-11-01T23:59:16.631Z,10.27
